Tributaries of Elbe river

river Ploučnice - water gauge Benešov nad Ploučnicí

Date and time (UTC) H (cm) Q (m³/s)
12. 4. 2024 23:20 76 4.1
12. 4. 2024 23:00 81 5
12. 4. 2024 22:00 79 5
12. 4. 2024 21:00 80 5
12. 4. 2024 20:00 75 4
12. 4. 2024 19:00 76 4
12. 4. 2024 18:00 80 5
12. 4. 2024 17:00 77 4
12. 4. 2024 16:00 78 5
12. 4. 2024 15:00 78 5
12. 4. 2024 14:00 78 5
12. 4. 2024 13:00 78 5
12. 4. 2024 12:00 79 5
12. 4. 2024 11:00 77 4

H - water level, Q - discharge

river Ohře - water gauge Louny

Date and time (UTC) H (cm) Q (m³/s)
12. 4. 2024 23:20 188 16.9
12. 4. 2024 23:00 188 17
12. 4. 2024 22:00 188 17
12. 4. 2024 21:00 188 17
12. 4. 2024 20:00 187 17
12. 4. 2024 19:00 187 17
12. 4. 2024 18:00 188 17
12. 4. 2024 17:00 189 17
12. 4. 2024 16:00 189 17
12. 4. 2024 15:00 190 18
12. 4. 2024 14:00 190 18
12. 4. 2024 13:00 189 17
12. 4. 2024 12:00 188 17
12. 4. 2024 11:00 189 17

H - water level, Q - discharge

Vraňany

Date and time (UTC) H (cm) Q (m³/s)
12. 4. 2024 23:10 31 69.5
12. 4. 2024 23:00 29 68
12. 4. 2024 22:00 16 55
12. 4. 2024 21:00 6 46
12. 4. 2024 20:00 5 45
12. 4. 2024 19:00 14 53
12. 4. 2024 18:00 15 54
12. 4. 2024 17:00 13 53
12. 4. 2024 16:00 13 53
12. 4. 2024 15:00 18 57
12. 4. 2024 14:00 23 62
12. 4. 2024 13:00 23 62
12. 4. 2024 12:00 17 56
12. 4. 2024 11:00 22 61

H - water level, Q - discharge

river Jizera - water gauge Předměřice

Date and time (UTC) H (cm) Q (m³/s)
12. 4. 2024 23:10 148 15.5
12. 4. 2024 23:00 149 16
12. 4. 2024 22:00 147 15
12. 4. 2024 21:00 143 14
12. 4. 2024 20:00 141 13
12. 4. 2024 19:00 145 15
12. 4. 2024 18:00 147 15
12. 4. 2024 17:00 148 16
12. 4. 2024 16:00 146 15
12. 4. 2024 15:00 146 15
12. 4. 2024 14:00 147 15
12. 4. 2024 13:00 148 16
12. 4. 2024 12:00 144 14
12. 4. 2024 11:00 144 14

H - water level, Q - discharge

river Cidlina - water gauge Sány

Date and time (UTC) H (cm) Q (m³/s)
12. 4. 2024 23:20 39 2
12. 4. 2024 23:00 41 2
12. 4. 2024 22:00 40 2
12. 4. 2024 21:00 41 2
12. 4. 2024 20:00 39 2
12. 4. 2024 19:00 41 2
12. 4. 2024 18:00 40 2
12. 4. 2024 17:00 41 2
12. 4. 2024 16:00 41 2
12. 4. 2024 15:00 39 2
12. 4. 2024 14:00 41 2
12. 4. 2024 13:00 41 2
12. 4. 2024 12:00 40 2
12. 4. 2024 11:00 41 2

H - water level, Q - discharge

river Orlice - water gauge Týniště nad Orlicí

Date and time (UTC) H (cm) Q (m³/s)
12. 4. 2024 23:20 82 10
12. 4. 2024 23:00 82 10
12. 4. 2024 22:00 81 10
12. 4. 2024 21:00 79 9
12. 4. 2024 20:00 81 10
12. 4. 2024 19:00 82 10
12. 4. 2024 18:00 81 10
12. 4. 2024 17:00 80 10
12. 4. 2024 16:00 82 10
12. 4. 2024 15:00 82 10
12. 4. 2024 14:00 83 10
12. 4. 2024 13:00 83 10
12. 4. 2024 12:00 83 10
12. 4. 2024 11:00 82 10

H - water level, Q - discharge
Source data
Labe Basin Vltava Basin Povodí Moravy ČHMÚ
Po vodě ekologicky, levně a v pohodě
backgroung on backgroung off